createdAt,value
2023-02-19T00:00:29.254Z,50.73019
2023-02-19T00:05:31.761Z,51.0151
2023-02-19T00:10:33.406Z,53.49859
2023-02-19T00:15:35.114Z,55.30897
2023-02-19T00:20:36.818Z,55.61492
2023-02-19T00:25:38.411Z,58.08895
2023-02-19T00:30:40.008Z,59.56712
2023-02-19T00:35:41.727Z,58.32434
2023-02-19T00:40:43.328Z,57.79883
2023-02-19T00:45:46.033Z,56.41244
2023-02-19T00:50:47.627Z,56.42876
2023-02-19T00:55:49.216Z,55.85593
2023-02-19T01:00:51.057Z,53.20906
2023-02-19T01:05:52.783Z,54.9513
2023-02-19T01:10:55.801Z,55.97338
2023-02-19T01:15:57.925Z,58.28692
2023-02-19T01:20:59.495Z,58.75126
2023-02-19T01:26:01.146Z,57.85335
2023-02-19T01:31:02.808Z,58.35763
2023-02-19T01:36:04.476Z,59.57915
2023-02-19T01:41:06.136Z,57.62644
2023-02-19T01:46:07.856Z,58.4194
2023-02-19T01:51:09.887Z,59.30795
2023-02-19T01:56:11.833Z,62.4074
2023-02-19T02:01:13.775Z,62.58494
2023-02-19T02:06:15.581Z,61.55173
2023-02-19T02:11:17.198Z,62.63397
2023-02-19T02:16:18.938Z,60.6113
2023-02-19T02:21:21.762Z,64.4198
2023-02-19T02:26:24.261Z,61.15353
2023-02-19T02:31:26.035Z,62.84069
2023-02-19T02:36:27.704Z,63.03054
2023-02-19T02:41:29.392Z,61.9371
2023-02-19T02:46:31.017Z,61.09262
2023-02-19T02:51:32.734Z,64.42452
2023-02-19T02:56:34.340Z,62.80894
2023-02-19T03:01:36.186Z,62.92353
2023-02-19T03:06:37.857Z,66.97879
2023-02-19T03:11:39.459Z,66.25981
2023-02-19T03:16:42.797Z,66.72916
2023-02-19T03:21:44.730Z,64.94028
2023-02-19T03:26:46.329Z,67.11467
2023-02-19T03:31:48.075Z,65.84018
2023-02-19T03:36:50.049Z,61.49573
2023-02-19T03:41:51.733Z,68.02921
2023-02-19T03:46:53.350Z,68.0331
2023-02-19T03:51:55.063Z,66.73681
2023-02-19T03:56:56.672Z,63.67455
2023-02-19T04:01:58.430Z,63.10105
2023-02-19T04:07:00.154Z,65.83226
2023-02-19T04:12:02.086Z,64.31034
2023-02-19T04:17:03.890Z,66.21738
2023-02-19T04:22:05.600Z,64.92262
2023-02-19T04:27:07.422Z,69.04813
2023-02-19T04:32:09.121Z,68.31261
2023-02-19T04:37:10.802Z,66.31753
2023-02-19T04:42:12.542Z,64.39033
2023-02-19T04:47:14.171Z,64.8373
2023-02-19T04:52:15.762Z,63.69709
2023-02-19T04:57:17.368Z,62.76445
2023-02-19T05:02:19.679Z,60.72375
2023-02-19T05:07:21.508Z,60.17763
2023-02-19T05:12:23.152Z,62.67372
2023-02-19T05:17:25.439Z,63.82132
2023-02-19T05:22:27.166Z,61.74296
2023-02-19T05:27:28.880Z,61.26556
2023-02-19T05:32:30.534Z,63.40506
2023-02-19T05:37:32.164Z,64.86139
2023-02-19T05:42:33.763Z,65.39922
2023-02-19T05:47:35.416Z,64.36076
2023-02-19T05:52:37.069Z,68.27607
2023-02-19T05:57:38.921Z,67.10549
2023-02-19T06:02:40.614Z,64.8627
2023-02-19T06:07:42.536Z,63.37207
2023-02-19T06:12:44.290Z,64.20181
2023-02-19T06:17:45.889Z,64.33778
2023-02-19T06:22:47.627Z,62.5642
2023-02-19T06:27:49.224Z,64.3752
2023-02-19T06:32:50.881Z,63.04753
2023-02-19T06:37:52.661Z,61.30957
2023-02-19T06:42:54.318Z,62.67031
2023-02-19T06:47:55.972Z,63.58623
2023-02-19T06:52:57.695Z,63.53314
2023-02-19T06:57:59.339Z,67.22291
2023-02-19T07:03:01.048Z,69.12262
2023-02-19T07:08:02.646Z,66.26105
2023-02-19T07:13:04.352Z,64.53874
2023-02-19T07:18:05.973Z,63.28472
2023-02-19T07:23:07.840Z,64.96611
2023-02-19T07:28:09.618Z,64.21189
2023-02-19T07:33:11.333Z,62.83875
2023-02-19T07:38:12.940Z,62.36228
2023-02-19T07:43:14.648Z,61.53918
2023-02-19T07:48:16.397Z,62.41618
2023-02-19T07:53:18.373Z,66.12984
2023-02-19T07:58:20.110Z,64.74475
2023-02-19T08:03:22.018Z,62.52459
2023-02-19T08:08:23.683Z,65.17512
2023-02-19T08:13:25.704Z,62.39588
2023-02-19T08:18:27.379Z,61.45603
2023-02-19T08:23:29.185Z,64.78319
2023-02-19T08:28:30.795Z,62.37501
2023-02-19T08:33:32.530Z,64.1057
2023-02-19T08:38:34.272Z,62.87297
2023-02-19T08:43:35.920Z,63.04131
2023-02-19T08:48:37.530Z,63.56446
2023-02-19T08:53:39.298Z,63.78876
2023-02-19T08:58:41.025Z,64.29175
2023-02-19T09:03:42.726Z,63.27881
2023-02-19T09:08:44.445Z,62.96464
2023-02-19T09:13:46.161Z,63.36562
2023-02-19T09:18:47.874Z,65.89937
2023-02-19T09:23:49.493Z,62.8682
2023-02-19T09:28:51.161Z,61.903
2023-02-19T09:33:52.846Z,61.38299
2023-02-19T09:38:54.701Z,62.99511
2023-02-19T09:43:56.382Z,62.80666
2023-02-19T09:48:58.058Z,61.04612
2023-02-19T09:53:59.709Z,62.32417
2023-02-19T09:59:01.368Z,64.33882
2023-02-19T10:04:03.092Z,61.31642
2023-02-19T10:09:04.729Z,63.35289
2023-02-19T10:14:06.415Z,62.03981
2023-02-19T10:19:08.073Z,65.03553
2023-02-19T10:24:09.740Z,63.43033
2023-02-19T10:29:11.398Z,64.56172
2023-02-19T10:34:13.020Z,63.15007
2023-02-19T10:39:14.672Z,62.136
2023-02-19T10:44:16.427Z,63.06388
2023-02-19T10:49:18.160Z,63.16511
2023-02-19T10:54:19.788Z,63.3587
2023-02-19T10:59:21.408Z,61.47464
2023-02-19T11:04:23.256Z,62.83084
2023-02-19T11:09:24.891Z,61.93254
2023-02-19T11:14:26.556Z,61.30853
2023-02-19T11:19:28.235Z,61.76969
2023-02-19T11:24:29.894Z,64.89014
2023-02-19T11:29:31.686Z,65.50065
2023-02-19T11:34:33.409Z,67.96476
2023-02-19T11:39:35.020Z,68.80942
2023-02-19T11:44:36.873Z,65.93898
2023-02-19T11:49:38.792Z,65.10535
2023-02-19T11:54:40.529Z,63.68488
2023-02-19T11:59:42.306Z,62.04233
2023-02-19T12:04:43.944Z,59.12986
2023-02-19T12:09:45.829Z,59.06979
2023-02-19T12:14:47.656Z,59.43437
2023-02-19T12:19:49.305Z,61.4333
2023-02-19T12:24:51.072Z,60.58371
2023-02-19T12:29:52.871Z,61.00951
2023-02-19T12:34:54.594Z,61.1713
2023-02-19T12:39:56.251Z,61.5395
2023-02-19T12:44:57.978Z,60.87815
2023-02-19T12:49:59.699Z,60.86529
2023-02-19T12:55:01.403Z,61.87973
2023-02-19T13:00:03.412Z,62.51611
2023-02-19T13:05:05.204Z,61.50679
2023-02-19T13:10:06.869Z,60.91496
2023-02-19T13:15:08.706Z,62.18588
2023-02-19T13:20:10.447Z,60.81234
2023-02-19T13:25:12.147Z,61.84417
2023-02-19T13:30:13.866Z,61.77438
2023-02-19T13:35:15.494Z,62.06949
2023-02-19T13:40:17.217Z,63.30761
2023-02-19T13:45:18.990Z,61.63752
2023-02-19T13:50:20.625Z,60.06747
2023-02-19T13:55:22.440Z,59.0903
2023-02-19T14:00:24.122Z,62.48747
2023-02-19T14:05:25.747Z,61.15265
2023-02-19T14:10:27.462Z,60.43919
2023-02-19T14:15:29.310Z,60.98514
2023-02-19T14:20:31.088Z,60.29998
2023-02-19T14:25:32.808Z,59.93142
2023-02-19T14:30:34.592Z,60.98214
2023-02-19T14:35:36.341Z,62.60007
2023-02-19T14:40:38.096Z,60.75357
2023-02-19T14:45:39.932Z,59.0643
2023-02-19T14:50:41.588Z,61.05703
2023-02-19T14:55:43.531Z,60.89119
2023-02-19T15:00:45.224Z,60.44935
2023-02-19T15:05:47.110Z,60.41546
2023-02-19T15:10:48.779Z,62.1787
2023-02-19T15:15:50.624Z,61.4299
2023-02-19T15:20:52.277Z,60.32681
2023-02-19T15:25:53.925Z,61.90581
2023-02-19T15:30:55.673Z,60.84683
2023-02-19T15:35:57.348Z,58.28871
2023-02-19T15:40:59.040Z,59.05821
2023-02-19T15:46:00.776Z,59.0176
2023-02-19T15:51:02.389Z,58.07841
2023-02-19T15:56:04.002Z,58.6035
2023-02-19T16:01:05.684Z,58.06941
2023-02-19T16:06:07.338Z,56.20606
2023-02-19T16:11:09.052Z,57.17737
2023-02-19T16:16:10.895Z,57.55931
2023-02-19T16:21:13.045Z,56.66327
2023-02-19T16:26:14.918Z,57.31065
2023-02-19T16:31:16.963Z,55.87208
2023-02-19T16:36:18.724Z,55.93121
2023-02-19T16:41:20.384Z,56.41751
2023-02-19T16:46:22.099Z,54.59319
2023-02-19T16:51:23.759Z,55.25978
2023-02-19T16:56:25.733Z,55.49858
2023-02-19T17:01:27.537Z,53.49679
2023-02-19T17:06:29.165Z,53.23909
2023-02-19T17:11:30.866Z,53.02541
2023-02-19T17:16:32.641Z,54.15271
2023-02-19T17:21:34.253Z,53.18311
2023-02-19T17:26:35.901Z,53.03472
2023-02-19T17:31:37.881Z,51.83168
2023-02-19T17:36:39.687Z,53.76911
2023-02-19T17:41:41.422Z,53.18311
2023-02-19T17:46:43.184Z,53.81451
2023-02-19T17:51:44.860Z,53.58581
2023-02-19T17:56:46.591Z,54.33879
2023-02-19T18:01:48.419Z,53.68041
2023-02-19T18:06:50.048Z,50.96791
2023-02-19T18:11:51.694Z,50.94542
2023-02-19T18:16:53.569Z,49.96395
2023-02-19T18:21:55.270Z,50.84642
2023-02-19T18:26:56.907Z,50.39691
2023-02-19T18:31:58.972Z,49.45677
2023-02-19T18:37:01.678Z,51.71046
2023-02-19T18:42:03.367Z,47.69356
2023-02-19T18:47:05.044Z,48.9645
2023-02-19T18:52:06.841Z,48.91676
2023-02-19T18:57:08.553Z,47.65557
2023-02-19T19:02:10.392Z,48.5207
2023-02-19T19:07:12.141Z,47.77164
2023-02-19T19:12:13.755Z,46.84443
2023-02-19T19:17:15.736Z,47.26365
2023-02-19T19:22:17.640Z,46.89808
2023-02-19T19:27:19.387Z,46.47425
2023-02-19T19:32:21.641Z,45.99451
2023-02-19T19:37:23.389Z,45.17732
2023-02-19T19:42:25.047Z,44.61806
2023-02-19T19:47:26.829Z,45.39412
2023-02-19T19:52:28.487Z,44.79495
2023-02-19T19:57:30.259Z,44.71036
2023-02-19T20:02:32.331Z,44.77378
2023-02-19T20:07:34.023Z,44.0654
2023-02-19T20:12:35.697Z,44.48303
2023-02-19T20:17:37.397Z,43.7349
2023-02-19T20:22:39.083Z,45.69098
2023-02-19T20:27:40.686Z,44.03623
2023-02-19T20:32:42.448Z,43.03768
2023-02-19T20:37:44.045Z,45.06937
2023-02-19T20:42:45.662Z,44.13141
2023-02-19T20:47:47.707Z,43.73212
2023-02-19T20:52:49.395Z,44.32419
2023-02-19T20:57:51.034Z,43.56488
2023-02-19T21:02:52.945Z,43.76298
2023-02-19T21:07:54.778Z,42.17588
2023-02-19T21:12:57.165Z,43.25798
2023-02-19T21:17:58.885Z,43.21818
2023-02-19T21:23:00.762Z,43.71334
2023-02-19T21:28:02.452Z,42.05626
2023-02-19T21:33:04.154Z,42.61655
2023-02-19T21:38:05.851Z,43.92954
2023-02-19T21:43:07.618Z,44.2655
2023-02-19T21:48:09.433Z,45.03293
2023-02-19T21:53:11.191Z,43.57424
2023-02-19T21:58:12.858Z,45.70594
2023-02-19T22:03:14.725Z,44.97696
2023-02-19T22:08:16.425Z,45.4729
2023-02-19T22:13:18.121Z,44.21336
2023-02-19T22:18:19.945Z,45.4891
2023-02-19T22:23:21.672Z,46.43742
2023-02-19T22:28:23.361Z,45.64558
2023-02-19T22:33:25.212Z,45.59767
2023-02-19T22:38:26.839Z,46.0652
2023-02-19T22:43:28.531Z,47.12197
2023-02-19T22:48:30.537Z,45.59871
2023-02-19T22:53:32.198Z,46.30655
2023-02-19T22:58:33.868Z,45.86277
2023-02-19T23:03:35.618Z,46.25849
2023-02-19T23:08:37.345Z,45.80906
2023-02-19T23:13:38.993Z,45.89739
2023-02-19T23:18:40.781Z,45.66758
2023-02-19T23:23:42.464Z,45.47361
2023-02-19T23:28:44.101Z,47.11811
2023-02-19T23:33:45.800Z,46.40553
2023-02-19T23:38:47.474Z,44.77979
2023-02-19T23:43:49.072Z,44.40415
2023-02-19T23:48:50.751Z,44.25313
2023-02-19T23:53:52.475Z,45.27028
2023-02-19T23:58:54.202Z,44.9166
